Cody Paul — WDC8106 — position and weather

sailwx.info

Track history (hours):
 
Tides and Currents Weather Stations Pressure Air Temp Water Temp Dewpoint Dewpoint Depression Visibility Wind Speed Wind Dir Waves Ship Positions

Cody Paul

Owner: Triple S Marine, LLC, Morgan City, LA. More information available from US FCC via Universal Licensing System and Coast Guard Vessel Documentation Center.

Last reported at 2017-Sep-18 17:25 UTC. Time now 2017-Sep-19 17:21 UTC.
Position N 29°34' W 090°28'.

Length 16 m; draft 3 m.

Type: Tug. MMSI: 367081770.

Date/timePositionNaut miles runAvg speedWind from/ knotsBaromVisibWave heightAir tempDewpointWater temp
2017-Sep-18 17:25N 29°34' W 090°28'2 4.8
2017-Sep-18 17:00N 29°34' W 090°31'1 0.8
2017-Sep-18 15:41N 29°34' W 090°32'0 0.4
2017-Sep-18 15:23N 29°34' W 090°32'0 0.8
2017-Sep-18 15:00N 29°33' W 090°32'0 0.2
2017-Sep-18 14:30N 29°33' W 090°32'0 0.0
2017-Sep-18 13:26N 29°33' W 090°32'0 0.0
2017-Sep-18 12:58N 29°33' W 090°32'0 0.0
2017-Sep-18 12:28N 29°33' W 090°32'0 0.0
2017-Sep-18 11:58N 29°33' W 090°32'0 0.0
2017-Sep-18 10:00N 29°33' W 090°32'0 0.0
2017-Sep-18 09:27N 29°33' W 090°32'0 0.0
2017-Sep-18 08:59N 29°33' W 090°32'0 0.0
2017-Sep-18 08:29N 29°33' W 090°32'0 0.0
2017-Sep-18 07:56N 29°33' W 090°32'0 0.0
2017-Sep-18 07:28N 29°33' W 090°32'0 0.0
2017-Sep-18 06:58N 29°33' W 090°32'0 0.0
2017-Sep-18 06:30N 29°33' W 090°32'0 0.0
2017-Sep-18 05:59N 29°33' W 090°32'0 0.0
2017-Sep-18 05:17N 29°33' W 090°32'0 0.0
2017-Sep-18 04:51N 29°33' W 090°32'0 0.0
2017-Sep-18 04:30N 29°33' W 090°32'0 0.0
2017-Sep-18 03:59N 29°33' W 090°32'0 0.0
2017-Sep-18 02:35N 29°33' W 090°32'0 0.0
2017-Sep-18 02:19N 29°33' W 090°32'0 0.0
2017-Sep-18 01:44N 29°33' W 090°32'0 0.0
2017-Sep-18 01:30N 29°33' W 090°32'0 0.0
2017-Sep-18 00:51N 29°33' W 090°32'0 0.0
2017-Sep-18 00:30N 29°33' W 090°32'0 0.0
2017-Sep-18 00:00N 29°33' W 090°32'0 0.0
2017-Sep-17 23:28N 29°33' W 090°32'0 0.0
2017-Sep-17 23:00N 29°33' W 090°32'0 0.0
2017-Sep-17 22:29N 29°33' W 090°32'0 0.0
2017-Sep-17 21:54N 29°33' W 090°32'0 0.0
2017-Sep-17 21:25N 29°33' W 090°32'0 0.1
2017-Sep-17 21:00N 29°33' W 090°32'0 0.1
2017-Sep-17 20:24N 29°33' W 090°32'3 0.1
2017-Sep-16 21:16N 29°33' W 090°28'2 6.5
2017-Sep-16 21:00N 29°34' W 090°30'1 2.7
2017-Sep-16 20:28N 29°33' W 090°32'0 0.0
2017-Sep-16 19:59N 29°33' W 090°32'0 0.0
2017-Sep-16 19:30N 29°33' W 090°32'0 0.0
2017-Sep-16 18:32N 29°33' W 090°32'0 0.0
2017-Sep-16 18:16N 29°33' W 090°32'0 0.0
2017-Sep-16 17:57N 29°33' W 090°32'0 0.0
2017-Sep-16 17:27N 29°33' W 090°32'0 0.0
2017-Sep-16 16:52N 29°33' W 090°32'0 0.1
2017-Sep-16 16:29N 29°33' W 090°32'3 0.1
2017-Sep-15 15:04N 29°34' W 090°28'0 6.7
2017-Sep-15 15:00N 29°34' W 090°29'3 6.7
2017-Sep-15 14:30N 29°34' W 090°33'3 6.5
2017-Sep-15 14:00N 29°35' W 090°36'2 3.3
2017-Sep-15 13:30N 29°35' W 090°38'0 0.0
2017-Sep-15 13:00N 29°35' W 090°38'0 0.0
2017-Sep-15 12:30N 29°35' W 090°38'0 0.0
2017-Sep-15 12:00N 29°35' W 090°38'0 0.3
2017-Sep-15 11:30N 29°35' W 090°38'3 5.4
2017-Sep-15 11:00N 29°36' W 090°41'2 3.6
2017-Sep-15 10:30N 29°35' W 090°43'3 5.3
2017-Sep-15 10:00N 29°34' W 090°45'3 5.6
2017-Sep-15 09:30N 29°32' W 090°48'5 6.5
2017-Sep-15 08:48N 29°32' W 090°53'2 6.9
2017-Sep-15 08:28N 29°34' W 090°55'1 0.1
2017-Sep-15 01:28N 29°34' W 090°56'5 7.0
2017-Sep-15 00:46N 29°32' W 090°51'2 7.2
2017-Sep-15 00:30N 29°32' W 090°49'3 5.8
2017-Sep-15 00:00N 29°33' W 090°45'3 5.1
2017-Sep-14 23:30N 29°35' W 090°43'2 4.9
2017-Sep-14 23:00N 29°37' W 090°42'3 6.6
2017-Sep-14 22:30N 29°35' W 090°39'3 6.2
2017-Sep-14 22:00N 29°35' W 090°35'3 6.1
2017-Sep-14 21:30N 29°34' W 090°32'0 0.0
2017-Sep-14 13:47N 29°33' W 090°32'0 0.0
2017-Sep-14 13:23N 29°33' W 090°32'0 0.0
2017-Sep-14 10:24N 29°33' W 090°32'0 0.0
2017-Sep-14 10:00N 29°33' W 090°32'0 0.0
2017-Sep-14 09:30N 29°33' W 090°32'0 0.0
2017-Sep-14 09:00N 29°33' W 090°32'0 0.0
2017-Sep-14 08:29N 29°33' W 090°32'0 0.0
2017-Sep-14 08:00N 29°33' W 090°32'0 0.0
2017-Sep-14 07:27N 29°33' W 090°32'0 0.0
2017-Sep-14 06:51N 29°33' W 090°32'0 0.0
2017-Sep-14 06:22N 29°33' W 090°32'0 0.0
2017-Sep-14 04:11N 29°33' W 090°32'0 0.0
2017-Sep-13 13:55N 29°33' W 090°32'0 0.0
2017-Sep-13 13:27N 29°33' W 090°32'0 0.0
2017-Sep-13 13:00N 29°33' W 090°32'0 0.0
2017-Sep-13 12:30N 29°33' W 090°32'  
2017-Sep-10 15:15N 29°33' W 090°32'0 0.1
2017-Sep-10 14:50N 29°33' W 090°32'0 0.0
2017-Sep-08 17:47N 29°33' W 090°32'0 0.0
2017-Sep-08 17:30N 29°33' W 090°32'  
Track history (hours):
 
Tides and Currents Weather Stations Pressure Air Temp Water Temp Dewpoint Dewpoint Depression Visibility Wind Speed Wind Dir Waves Ship Positions

Cody Paul

Owner: Triple S Marine, LLC, Morgan City, LA. More information available from US FCC via Universal Licensing System and Coast Guard Vessel Documentation Center.

Last reported at 2017-Sep-18 17:25 UTC. Time now 2017-Sep-19 17:21 UTC.
Position N 29°34' W 090°28'.

Length 16 m; draft 3 m.

Type: Tug. MMSI: 367081770.

Date/timePositionNaut miles runAvg speedWind from/ knotsBaromVisibWave heightAir tempDewpointWater temp
2017-Sep-18 17:25N 29°34' W 090°28'2 4.8
2017-Sep-18 17:00N 29°34' W 090°31'1 0.8
2017-Sep-18 15:41N 29°34' W 090°32'0 0.4
2017-Sep-18 15:23N 29°34' W 090°32'0 0.8
2017-Sep-18 15:00N 29°33' W 090°32'0 0.2
2017-Sep-18 14:30N 29°33' W 090°32'0 0.0
2017-Sep-18 13:26N 29°33' W 090°32'0 0.0
2017-Sep-18 12:58N 29°33' W 090°32'0 0.0
2017-Sep-18 12:28N 29°33' W 090°32'0 0.0
2017-Sep-18 11:58N 29°33' W 090°32'0 0.0
2017-Sep-18 10:00N 29°33' W 090°32'0 0.0
2017-Sep-18 09:27N 29°33' W 090°32'0 0.0
2017-Sep-18 08:59N 29°33' W 090°32'0 0.0
2017-Sep-18 08:29N 29°33' W 090°32'0 0.0
2017-Sep-18 07:56N 29°33' W 090°32'0 0.0
2017-Sep-18 07:28N 29°33' W 090°32'0 0.0
2017-Sep-18 06:58N 29°33' W 090°32'0 0.0
2017-Sep-18 06:30N 29°33' W 090°32'0 0.0
2017-Sep-18 05:59N 29°33' W 090°32'0 0.0
2017-Sep-18 05:17N 29°33' W 090°32'0 0.0
2017-Sep-18 04:51N 29°33' W 090°32'0 0.0
2017-Sep-18 04:30N 29°33' W 090°32'0 0.0
2017-Sep-18 03:59N 29°33' W 090°32'0 0.0
2017-Sep-18 02:35N 29°33' W 090°32'0 0.0
2017-Sep-18 02:19N 29°33' W 090°32'0 0.0
2017-Sep-18 01:44N 29°33' W 090°32'0 0.0
2017-Sep-18 01:30N 29°33' W 090°32'0 0.0
2017-Sep-18 00:51N 29°33' W 090°32'0 0.0
2017-Sep-18 00:30N 29°33' W 090°32'0 0.0
2017-Sep-18 00:00N 29°33' W 090°32'0 0.0
2017-Sep-17 23:28N 29°33' W 090°32'0 0.0
2017-Sep-17 23:00N 29°33' W 090°32'0 0.0
2017-Sep-17 22:29N 29°33' W 090°32'0 0.0
2017-Sep-17 21:54N 29°33' W 090°32'0 0.0
2017-Sep-17 21:25N 29°33' W 090°32'0 0.1
2017-Sep-17 21:00N 29°33' W 090°32'0 0.1
2017-Sep-17 20:24N 29°33' W 090°32'3 0.1
2017-Sep-16 21:16N 29°33' W 090°28'2 6.5
2017-Sep-16 21:00N 29°34' W 090°30'1 2.7
2017-Sep-16 20:28N 29°33' W 090°32'0 0.0
2017-Sep-16 19:59N 29°33' W 090°32'0 0.0
2017-Sep-16 19:30N 29°33' W 090°32'0 0.0
2017-Sep-16 18:32N 29°33' W 090°32'0 0.0
2017-Sep-16 18:16N 29°33' W 090°32'0 0.0
2017-Sep-16 17:57N 29°33' W 090°32'0 0.0
2017-Sep-16 17:27N 29°33' W 090°32'0 0.0
2017-Sep-16 16:52N 29°33' W 090°32'0 0.1
2017-Sep-16 16:29N 29°33' W 090°32'3 0.1
2017-Sep-15 15:04N 29°34' W 090°28'0 6.7
2017-Sep-15 15:00N 29°34' W 090°29'3 6.7
2017-Sep-15 14:30N 29°34' W 090°33'3 6.5
2017-Sep-15 14:00N 29°35' W 090°36'2 3.3
2017-Sep-15 13:30N 29°35' W 090°38'0 0.0
2017-Sep-15 13:00N 29°35' W 090°38'0 0.0
2017-Sep-15 12:30N 29°35' W 090°38'0 0.0
2017-Sep-15 12:00N 29°35' W 090°38'0 0.3
2017-Sep-15 11:30N 29°35' W 090°38'3 5.4
2017-Sep-15 11:00N 29°36' W 090°41'2 3.6
2017-Sep-15 10:30N 29°35' W 090°43'3 5.3
2017-Sep-15 10:00N 29°34' W 090°45'3 5.6
2017-Sep-15 09:30N 29°32' W 090°48'5 6.5
2017-Sep-15 08:48N 29°32' W 090°53'2 6.9
2017-Sep-15 08:28N 29°34' W 090°55'1 0.1
2017-Sep-15 01:28N 29°34' W 090°56'5 7.0
2017-Sep-15 00:46N 29°32' W 090°51'2 7.2
2017-Sep-15 00:30N 29°32' W 090°49'3 5.8
2017-Sep-15 00:00N 29°33' W 090°45'3 5.1
2017-Sep-14 23:30N 29°35' W 090°43'2 4.9
2017-Sep-14 23:00N 29°37' W 090°42'3 6.6
2017-Sep-14 22:30N 29°35' W 090°39'3 6.2
2017-Sep-14 22:00N 29°35' W 090°35'3 6.1
2017-Sep-14 21:30N 29°34' W 090°32'0 0.0
2017-Sep-14 13:47N 29°33' W 090°32'0 0.0
2017-Sep-14 13:23N 29°33' W 090°32'0 0.0
2017-Sep-14 10:24N 29°33' W 090°32'0 0.0
2017-Sep-14 10:00N 29°33' W 090°32'0 0.0
2017-Sep-14 09:30N 29°33' W 090°32'0 0.0
2017-Sep-14 09:00N 29°33' W 090°32'0 0.0
2017-Sep-14 08:29N 29°33' W 090°32'0 0.0
2017-Sep-14 08:00N 29°33' W 090°32'0 0.0
2017-Sep-14 07:27N 29°33' W 090°32'0 0.0
2017-Sep-14 06:51N 29°33' W 090°32'0 0.0
2017-Sep-14 06:22N 29°33' W 090°32'0 0.0
2017-Sep-14 04:11N 29°33' W 090°32'0 0.0
2017-Sep-13 13:55N 29°33' W 090°32'0 0.0
2017-Sep-13 13:27N 29°33' W 090°32'0 0.0
2017-Sep-13 13:00N 29°33' W 090°32'0 0.0
2017-Sep-13 12:30N 29°33' W 090°32'  
2017-Sep-10 15:15N 29°33' W 090°32'0 0.1
2017-Sep-10 14:50N 29°33' W 090°32'0 0.0
2017-Sep-08 17:47N 29°33' W 090°32'0 0.0
2017-Sep-08 17:30N 29°33' W 090°32'  

Dump ship's entire track history